Flight Track Log - Related Links

Times and Time Zones

All times are in EDT time to prevent confusion due to time zone crossing. See the WJA348 flight status page for this flight to view local times or setup timezone preferences in your user account.

Time Position Orientation Groundspeed Altitude Reporting Facility
EDT Latitude Longitude Course Direction KTS MPH feet Rate Location/Type
Wed 09:52:35 PM 51.0167 -114.0667 192° South 210 242 6,300  Level Edmonton Center
Wed 09:53:35 PM 50.9667 -114.1167 212° Southwest 260 299 9,100 2,350 Climbing Edmonton Center
Wed 09:54:35 PM 50.9500 -114.2500 259° West 300 345 11,000 2,550 Climbing Edmonton Center
Wed 09:55:35 PM 50.9833 -114.3667 294° West 320 368 14,200 2,050 Climbing Edmonton Center
Wed 09:56:35 PM 51.0333 -114.5333 296° West 390 449 15,100 1,750 Climbing Edmonton Center
Wed 09:57:35 PM 51.0333 -114.7000 270° West 420 483 17,700 2,650 Climbing Edmonton Center
Wed 09:58:35 PM 51.0167 -114.9167 263° West 430 495 20,400 2,550 Climbing Edmonton Center
Wed 09:59:35 PM 51.0000 -115.1000 262° West 430 495 22,800 2,200 Climbing Edmonton Center
Wed 10:00:35 PM 51.0000 -115.2833 270° West 440 506 24,800 2,300 Climbing Edmonton Center
Wed 10:01:35 PM 50.9667 -115.5000 256° West 460 529 27,400 2,550 Climbing Edmonton Center
Wed 10:02:35 PM 50.9500 -115.6833 262° West 450 518 29,900 2,350 Climbing Edmonton Center
Wed 10:03:35 PM 50.9333 -115.8833 263° West 430 495 32,100 1,750 Climbing Edmonton Center
Wed 10:04:35 PM 50.9167 -116.0667 262° West 440 506 33,400 950 Climbing Edmonton Center
Wed 10:05:35 PM 50.9167 -116.2667 270° West 450 518 34,000 300 Climbing Edmonton Center
Wed 10:06:35 PM 50.8833 -116.4667 255° West 450 518 34,000  Level Edmonton Center
Wed 10:07:35 PM 50.8667 -116.6500 262° West 440 506 34,000  Level Edmonton Center
Wed 10:08:35 PM 50.8667 -116.8667 270° West 440 506 34,000  Level Edmonton Center
Wed 10:09:35 PM 50.8500 -117.0500 262° West 440 506 34,000  Level Edmonton Center
Wed 10:10:35 PM 50.8333 -117.2500 263° West 440 506 34,000 -450 Level Edmonton Center
Wed 10:11:35 PM 50.8167 -117.4333 262° West 440 506 33,100 -1,400 Descending Edmonton Center
Wed 10:12:35 PM 50.8167 -117.6167 270° West 440 506 31,200 -1,950 Descending Edmonton Center
Wed 10:13:35 PM 50.7833 -117.8167 255° West 430 495 29,200 -1,900 Descending Edmonton Center
Wed 10:14:35 PM 50.7833 -117.9833 270° West 410 472 27,400 -1,900 Descending Edmonton Center
Wed 10:15:35 PM 50.7667 -118.1667 262° West 410 472 25,400 -1,850 Descending Edmonton Center
Wed 10:16:35 PM 50.7667 -118.3500 270° West 400 460 23,700 -1,850 Descending Edmonton Center
Wed 10:17:35 PM 50.7333 -118.5333 254° West 400 460 21,700 -1,850 Descending Edmonton Center
Wed 10:18:35 PM 50.7333 -118.7000 270° West 390 449 20,000 -1,650 Descending Edmonton Center
Wed 10:19:35 PM 50.7167 -118.8500 260° West 390 449 18,400 -1,750 Descending Edmonton Center
Wed 10:20:35 PM 50.7000 -119.0333 262° West 380 437 16,500 -1,750 Descending Edmonton Center
Wed 10:21:35 PM 50.6833 -119.1667 259° West 370 426 14,900 -1,700 Descending Edmonton Center
Wed 10:22:35 PM 50.6833 -119.3500 270° West 350 403 13,100 -1,650 Descending Edmonton Center
Wed 10:23:35 PM 50.6667 -119.4833 259° West 340 391 11,600 -1,000 Descending Edmonton Center
Wed 10:24:35 PM 50.6667 -119.6167 270° West 320 368 11,100 -661 Descending Edmonton Center
Wed 10:25:33 PM 50.6667 -119.6833 270° West 290 334 10,300 -1,119 Descending Vancouver Center
Wed 10:26:33 PM 50.6667 -119.8167 270° West 280 322 8,900 -1,500 Descending Vancouver Center
Wed 10:27:33 PM 50.6500 -119.9333 257° West 280 322 7,300 -1,500 Descending Vancouver Center
Wed 10:28:33 PM 50.6500 -120.0333 270° West 270 311 5,900 -1,350 Descending Vancouver Center
Wed 10:29:33 PM 50.6500 -120.1333 270° West 230 265 4,600 -1,150 Descending Vancouver Center
Wed 10:30:33 PM 50.6667 -120.2333 285° West 210 242 3,600 -950 Descending Vancouver Center
Wed 10:31:33 PM 50.6667 -120.3000 270° West 170 196 2,700 -850 Descending Vancouver Center
Wed 10:32:33 PM 50.6667 -120.3667 270° West 160 184 1,900 -800 Descending Vancouver Center

Login

Don't have an account? Register now (free) for customized features, flight alerts, and more!